createdAt,value
2023-02-17T00:02:30.058Z,3.56
2023-02-17T00:05:16.106Z,3.39
2023-02-17T00:08:02.017Z,3.31
2023-02-17T00:10:58.406Z,3.23
2023-02-17T00:13:44.812Z,3.27
2023-02-17T00:16:30.590Z,3.22
2023-02-17T00:19:26.653Z,3.09
2023-02-17T00:22:12.499Z,2.97
2023-02-17T00:24:58.202Z,2.90
2023-02-17T00:27:43.709Z,2.86
2023-02-17T00:30:29.492Z,2.90
2023-02-17T00:33:15.228Z,2.92
2023-02-17T00:36:10.906Z,2.88
2023-02-17T00:38:58.036Z,2.97
2023-02-17T00:41:44.442Z,2.99
2023-02-17T00:44:30.393Z,3.02
2023-02-17T00:47:18.213Z,3.04
2023-02-17T00:50:07.205Z,3.07
2023-02-17T00:52:53.934Z,3.10
2023-02-17T00:55:39.642Z,3.11
2023-02-17T00:58:25.646Z,3.15
2023-02-17T01:01:15.030Z,3.12
2023-02-17T01:04:02.047Z,3.08
2023-02-17T01:06:56.076Z,3.06
2023-02-17T01:09:42.544Z,3.05
2023-02-17T01:12:34.939Z,3.00
2023-02-17T01:15:20.612Z,2.93
2023-02-17T01:18:08.027Z,2.93
2023-02-17T01:20:54.391Z,2.92
2023-02-17T01:23:39.935Z,2.95
2023-02-17T01:26:29.134Z,2.96
2023-02-17T01:29:14.869Z,2.95
2023-02-17T01:32:09.899Z,2.83
2023-02-17T01:34:55.728Z,2.89
2023-02-17T01:37:41.599Z,2.86
2023-02-17T01:40:27.601Z,2.75
2023-02-17T01:43:31.461Z,2.79
2023-02-17T01:46:17.940Z,2.76
2023-02-17T01:49:28.773Z,2.71
2023-02-17T01:52:18.868Z,2.68
2023-02-17T01:55:08.851Z,2.65
2023-02-17T01:57:56.765Z,2.62
2023-02-17T02:00:43.160Z,2.52
2023-02-17T02:03:31.436Z,2.46
2023-02-17T02:06:21.443Z,2.41
2023-02-17T02:09:19.163Z,2.36
2023-02-17T02:12:20.650Z,2.33
2023-02-17T02:15:12.603Z,2.34
2023-02-17T02:18:04.279Z,2.35
2023-02-17T02:20:52.565Z,2.33
2023-02-17T02:23:49.888Z,2.29
2023-02-17T02:26:58.619Z,2.25
2023-02-17T02:30:08.868Z,2.21
2023-02-17T02:33:00.200Z,2.22
2023-02-17T02:35:55.422Z,2.23
2023-02-17T02:38:46.390Z,2.22
2023-02-17T02:41:39.572Z,2.19
2023-02-17T02:44:25.618Z,2.22
2023-02-17T02:48:05.985Z,2.24
2023-02-17T02:51:13.324Z,2.26
2023-02-17T02:53:59.087Z,2.26
2023-02-17T02:57:16.436Z,2.24
2023-02-17T03:00:24.186Z,2.24
2023-02-17T03:03:26.079Z,2.26
2023-02-17T03:06:17.270Z,2.24
2023-02-17T03:09:07.966Z,2.23
2023-02-17T03:11:57.998Z,2.22
2023-02-17T03:14:48.578Z,2.18
2023-02-17T03:17:36.093Z,2.23
2023-02-17T03:20:22.563Z,2.19
2023-02-17T03:23:08.340Z,2.19
2023-02-17T03:25:54.391Z,2.17
2023-02-17T03:28:40.370Z,2.16
2023-02-17T03:31:28.473Z,2.14
2023-02-17T03:34:15.371Z,2.10
2023-02-17T03:37:01.043Z,2.11
2023-02-17T03:39:46.710Z,2.10
2023-02-17T03:42:32.605Z,2.09
2023-02-17T03:45:18.333Z,2.09
2023-02-17T03:48:04.507Z,2.04
2023-02-17T03:50:50.384Z,2.04
2023-02-17T03:53:36.261Z,2.02
2023-02-17T03:56:22.156Z,2.03
2023-02-17T03:59:08.118Z,2.02
2023-02-17T04:01:54.100Z,1.99
2023-02-17T04:04:39.832Z,1.98
2023-02-17T04:07:25.442Z,1.95
2023-02-17T04:10:11.374Z,1.92
2023-02-17T04:12:57.499Z,1.91
2023-02-17T04:15:43.240Z,1.90
2023-02-17T04:18:28.881Z,1.90
2023-02-17T04:21:16.662Z,1.87
2023-02-17T04:24:02.752Z,1.87
2023-02-17T04:26:48.574Z,1.85
2023-02-17T04:29:34.117Z,1.79
2023-02-17T04:32:19.811Z,1.81
2023-02-17T04:35:05.871Z,1.81
2023-02-17T04:37:51.914Z,1.82
2023-02-17T04:40:38.215Z,1.83
2023-02-17T04:43:26.950Z,1.81
2023-02-17T04:46:12.904Z,1.85
2023-02-17T04:48:58.837Z,1.86
2023-02-17T04:51:44.773Z,1.87
2023-02-17T04:54:30.423Z,1.87
2023-02-17T04:57:16.386Z,1.85
2023-02-17T05:00:02.164Z,1.81
2023-02-17T05:02:48.088Z,1.81
2023-02-17T05:05:34.779Z,1.80
2023-02-17T05:08:20.294Z,1.76
2023-02-17T05:11:05.942Z,1.77
2023-02-17T05:13:51.600Z,1.76
2023-02-17T05:16:37.218Z,1.74
2023-02-17T05:19:22.853Z,1.68
2023-02-17T05:22:08.443Z,1.64
2023-02-17T05:24:54.221Z,1.66
2023-02-17T05:27:40.087Z,1.65
2023-02-17T05:30:25.787Z,1.62
2023-02-17T05:33:11.705Z,1.62
2023-02-17T05:36:01.721Z,1.59
2023-02-17T05:38:49.990Z,1.58
2023-02-17T05:41:35.949Z,1.60
2023-02-17T05:44:21.787Z,1.62
2023-02-17T05:47:07.469Z,1.62
2023-02-17T05:49:55.236Z,1.65
2023-02-17T05:52:41.722Z,1.64
2023-02-17T05:55:27.794Z,1.72
2023-02-17T05:58:13.605Z,1.75
2023-02-17T06:01:00.443Z,1.78
2023-02-17T06:03:46.417Z,1.82
2023-02-17T06:06:32.127Z,1.85
2023-02-17T06:09:17.796Z,1.88
2023-02-17T06:12:04.043Z,1.90
2023-02-17T06:14:49.921Z,1.94
2023-02-17T06:17:35.539Z,1.96
2023-02-17T06:20:21.510Z,1.97
2023-02-17T06:23:07.368Z,1.97
2023-02-17T06:25:53.303Z,1.92
2023-02-17T06:28:39.785Z,1.90
2023-02-17T06:31:26.267Z,1.84
2023-02-17T06:34:11.959Z,1.87
2023-02-17T06:36:58.995Z,1.85
2023-02-17T06:39:44.897Z,1.87
2023-02-17T06:42:31.698Z,1.84
2023-02-17T06:45:17.599Z,1.87
2023-02-17T06:48:03.459Z,1.83
2023-02-17T06:50:49.936Z,1.86
2023-02-17T06:53:37.716Z,1.85
2023-02-17T06:56:23.483Z,1.88
2023-02-17T06:59:09.613Z,1.88
2023-02-17T07:01:55.661Z,1.91
2023-02-17T07:04:42.249Z,1.94
2023-02-17T07:07:28.615Z,1.95
2023-02-17T07:10:14.228Z,2.00
2023-02-17T07:12:59.856Z,2.04
2023-02-17T07:15:45.647Z,2.09
2023-02-17T07:18:32.626Z,2.13
2023-02-17T07:21:18.277Z,2.19
2023-02-17T07:24:07.471Z,2.23
2023-02-17T07:26:55.710Z,2.31
2023-02-17T07:29:45.156Z,2.37
2023-02-17T07:32:30.836Z,2.46
2023-02-17T07:35:17.995Z,2.53
2023-02-17T07:38:03.574Z,2.61
2023-02-17T07:40:49.324Z,2.66
2023-02-17T07:43:35.072Z,2.74
2023-02-17T07:46:22.589Z,2.83
2023-02-17T07:49:08.533Z,2.90
2023-02-17T07:51:54.200Z,2.98
2023-02-17T07:54:40.012Z,3.04
2023-02-17T07:57:25.869Z,3.09
2023-02-17T08:00:12.072Z,3.22
2023-02-17T08:03:00.947Z,3.29
2023-02-17T08:05:48.256Z,3.37
2023-02-17T08:08:54.362Z,3.50
2023-02-17T08:11:59.870Z,3.60
2023-02-17T08:14:46.198Z,3.70
2023-02-17T08:17:32.845Z,3.78
2023-02-17T08:20:18.823Z,3.87
2023-02-17T08:23:07.970Z,3.95
2023-02-17T08:25:53.760Z,4.03
2023-02-17T08:28:40.153Z,4.11
2023-02-17T08:31:28.509Z,4.22
2023-02-17T08:34:14.294Z,4.28
2023-02-17T08:37:01.531Z,4.37
2023-02-17T08:39:47.367Z,4.50
2023-02-17T08:42:33.188Z,4.60
2023-02-17T08:45:19.236Z,4.69
2023-02-17T08:48:06.433Z,4.79
2023-02-17T08:50:52.431Z,4.88
2023-02-17T08:53:38.566Z,5.02
2023-02-17T08:56:25.796Z,5.24
2023-02-17T08:59:12.644Z,5.44
2023-02-17T09:01:58.794Z,5.70
2023-02-17T09:04:47.235Z,5.95
2023-02-17T09:07:33.840Z,6.21
2023-02-17T09:10:20.054Z,6.51
2023-02-17T09:13:05.985Z,6.82
2023-02-17T09:15:54.065Z,7.08
2023-02-17T09:18:39.924Z,7.43
2023-02-17T09:21:25.677Z,7.71
2023-02-17T09:24:11.509Z,7.97
2023-02-17T09:26:58.591Z,8.27
2023-02-17T09:29:45.585Z,8.52
2023-02-17T09:32:34.374Z,8.77
2023-02-17T09:35:21.056Z,9.03
2023-02-17T09:38:07.357Z,9.17
2023-02-17T09:40:53.279Z,9.55
2023-02-17T09:43:39.544Z,9.75
2023-02-17T09:46:37.426Z,10.05
2023-02-17T09:49:27.225Z,10.32
2023-02-17T09:52:58.573Z,10.53
2023-02-17T09:55:48.549Z,10.79
2023-02-17T09:58:34.222Z,11.06
2023-02-17T10:01:33.553Z,11.27
2023-02-17T10:04:34.562Z,11.52
2023-02-17T10:07:40.576Z,11.72
2023-02-17T10:10:31.756Z,11.95
2023-02-17T10:13:20.629Z,12.18
2023-02-17T10:16:10.349Z,12.42
2023-02-17T10:19:03.265Z,12.64
2023-02-17T10:21:57.913Z,12.86
2023-02-17T10:24:44.088Z,13.02
2023-02-17T10:27:53.074Z,13.24
2023-02-17T10:30:39.113Z,13.43
2023-02-17T10:33:38.914Z,13.62
2023-02-17T10:36:54.590Z,13.81
2023-02-17T10:39:49.588Z,14.05
2023-02-17T10:42:37.511Z,14.28
2023-02-17T10:45:31.542Z,14.51
2023-02-17T10:48:34.265Z,14.72
2023-02-17T10:51:23.994Z,14.92
2023-02-17T10:54:51.879Z,15.09
2023-02-17T10:57:39.516Z,15.26
2023-02-17T11:00:26.863Z,15.45
2023-02-17T11:03:20.590Z,15.76
2023-02-17T11:06:19.787Z,16.09
2023-02-17T11:09:08.357Z,16.35
2023-02-17T11:12:06.837Z,16.54
2023-02-17T11:14:54.496Z,16.80
2023-02-17T11:17:41.276Z,16.95
2023-02-17T11:20:33.420Z,17.19
2023-02-17T11:23:24.279Z,17.29
2023-02-17T11:26:19.158Z,17.39
2023-02-17T11:29:17.905Z,17.42
2023-02-17T11:32:10.705Z,17.47
2023-02-17T11:34:58.441Z,17.60
2023-02-17T11:37:45.238Z,17.67
2023-02-17T11:40:33.053Z,17.82
2023-02-17T11:43:19.309Z,17.95
2023-02-17T11:46:23.669Z,18.31
2023-02-17T11:49:40.607Z,18.65
2023-02-17T11:52:32.586Z,18.97
2023-02-17T11:55:56.496Z,19.31
2023-02-17T11:59:13.758Z,19.62
2023-02-17T12:02:07.023Z,19.83
2023-02-17T12:05:14.062Z,20.09
2023-02-17T12:08:38.398Z,20.18
2023-02-17T12:11:34.033Z,20.25
2023-02-17T12:14:49.494Z,20.20
2023-02-17T12:18:18.139Z,20.23
2023-02-17T12:21:19.183Z,20.17
2023-02-17T12:24:12.675Z,20.13
2023-02-17T12:27:04.830Z,20.12
2023-02-17T12:30:18.607Z,20.17
2023-02-17T12:33:23.268Z,20.10
2023-02-17T12:36:13.267Z,20.10
2023-02-17T12:39:03.084Z,20.09
2023-02-17T12:42:10.957Z,19.99
2023-02-17T12:45:03.007Z,19.94
2023-02-17T12:47:56.356Z,20.00
2023-02-17T12:50:53.304Z,20.02
2023-02-17T12:53:49.393Z,20.09
2023-02-17T12:56:53.052Z,20.26
2023-02-17T12:59:45.258Z,20.44
2023-02-17T13:02:31.433Z,20.51
2023-02-17T13:05:47.472Z,20.65
2023-02-17T13:08:40.363Z,20.74
2023-02-17T13:11:33.777Z,20.69
2023-02-17T13:14:46.145Z,20.85
2023-02-17T13:17:39.586Z,21.07
2023-02-17T13:20:47.252Z,21.28
2023-02-17T13:23:36.515Z,21.56
2023-02-17T13:26:22.680Z,21.71
2023-02-17T13:29:24.003Z,21.85
2023-02-17T13:32:12.502Z,21.84
2023-02-17T13:35:32.531Z,22.01
2023-02-17T13:38:32.168Z,22.21
2023-02-17T13:41:18.210Z,22.40
2023-02-17T13:44:30.467Z,22.56
2023-02-17T13:47:29.208Z,22.54
2023-02-17T13:50:30.844Z,22.48
2023-02-17T13:53:31.224Z,22.44
2023-02-17T13:56:27.170Z,22.31
2023-02-17T13:59:19.022Z,22.23
2023-02-17T14:02:35.448Z,22.15
2023-02-17T14:05:37.346Z,22.02
2023-02-17T14:08:38.407Z,21.95
2023-02-17T14:11:31.287Z,21.83
2023-02-17T14:14:19.234Z,21.77
2023-02-17T14:17:15.626Z,21.71
2023-02-17T14:20:02.673Z,21.67
2023-02-17T14:23:04.315Z,21.58
2023-02-17T14:25:51.673Z,21.48
2023-02-17T14:28:37.449Z,21.33
2023-02-17T14:31:24.586Z,21.17
2023-02-17T14:34:31.957Z,20.96
2023-02-17T14:37:22.104Z,20.62
2023-02-17T14:40:16.987Z,20.21
2023-02-17T14:43:02.887Z,19.71
2023-02-17T14:45:49.280Z,19.30
2023-02-17T14:48:35.134Z,18.87
2023-02-17T14:51:23.373Z,18.52
2023-02-17T14:54:15.330Z,18.18
2023-02-17T14:57:11.649Z,17.86
2023-02-17T14:59:58.080Z,17.61
2023-02-17T15:02:43.951Z,17.35
2023-02-17T15:05:29.913Z,17.13
2023-02-17T15:08:19.430Z,16.88
2023-02-17T15:11:06.023Z,16.70
2023-02-17T15:13:52.208Z,16.55
2023-02-17T15:16:37.981Z,16.38
2023-02-17T15:19:24.777Z,16.28
2023-02-17T15:22:12.226Z,16.12
2023-02-17T15:24:58.003Z,16.02
2023-02-17T15:27:46.563Z,15.91
2023-02-17T15:30:33.012Z,15.81
2023-02-17T15:33:20.867Z,15.71
2023-02-17T15:36:07.408Z,15.58
2023-02-17T15:38:54.106Z,15.50
2023-02-17T15:41:41.648Z,15.40
2023-02-17T15:44:38.840Z,15.32
2023-02-17T15:47:24.603Z,15.23
2023-02-17T15:50:28.581Z,15.11
2023-02-17T15:53:14.284Z,15.01
2023-02-17T15:56:02.906Z,14.88
2023-02-17T15:58:49.984Z,14.82
2023-02-17T16:01:36.390Z,14.67
2023-02-17T16:04:22.682Z,14.62
2023-02-17T16:07:08.797Z,14.50
2023-02-17T16:09:54.838Z,14.32
2023-02-17T16:12:44.234Z,14.23
2023-02-17T16:15:31.751Z,14.11
2023-02-17T16:18:23.887Z,13.97
2023-02-17T16:21:11.612Z,13.85
2023-02-17T16:23:59.902Z,13.80
2023-02-17T16:26:46.360Z,13.71
2023-02-17T16:29:32.003Z,13.61
2023-02-17T16:32:20.013Z,13.46
2023-02-17T16:35:06.529Z,13.39
2023-02-17T16:38:01.364Z,13.28
2023-02-17T16:40:49.104Z,13.18
2023-02-17T16:43:35.401Z,13.08
2023-02-17T16:46:33.651Z,12.99
2023-02-17T16:49:19.780Z,12.91
2023-02-17T16:52:12.946Z,12.81
2023-02-17T16:54:59.029Z,12.67
2023-02-17T16:57:46.056Z,12.61
2023-02-17T17:00:33.224Z,12.53
2023-02-17T17:03:19.817Z,12.45
2023-02-17T17:06:18.647Z,12.36
2023-02-17T17:09:05.710Z,12.28
2023-02-17T17:11:51.813Z,12.20
2023-02-17T17:14:37.554Z,12.10
2023-02-17T17:17:23.447Z,11.97
2023-02-17T17:20:19.420Z,11.89
2023-02-17T17:23:08.686Z,11.79
2023-02-17T17:25:57.310Z,11.74
2023-02-17T17:28:43.687Z,11.65
2023-02-17T17:31:29.997Z,11.58
2023-02-17T17:34:16.060Z,11.47
2023-02-17T17:37:02.639Z,11.38
2023-02-17T17:39:48.613Z,11.27
2023-02-17T17:42:37.835Z,11.22
2023-02-17T17:45:25.324Z,11.14
2023-02-17T17:48:15.756Z,11.10
2023-02-17T17:51:01.981Z,11.04
2023-02-17T17:53:51.650Z,10.98
2023-02-17T17:56:42.107Z,10.91
2023-02-17T17:59:28.497Z,10.81
2023-02-17T18:02:21.333Z,10.72
2023-02-17T18:05:08.092Z,10.58
2023-02-17T18:07:54.055Z,10.53
2023-02-17T18:10:41.234Z,10.43
2023-02-17T18:13:27.214Z,10.32
2023-02-17T18:16:14.282Z,10.20
2023-02-17T18:19:01.844Z,10.13
2023-02-17T18:21:48.191Z,10.06
2023-02-17T18:24:34.707Z,10.02
2023-02-17T18:27:22.012Z,9.96
2023-02-17T18:30:10.074Z,9.88
2023-02-17T18:32:56.604Z,9.85
2023-02-17T18:35:45.593Z,9.80
2023-02-17T18:38:31.690Z,9.73
2023-02-17T18:41:24.208Z,9.68
2023-02-17T18:44:13.829Z,9.61
2023-02-17T18:46:59.917Z,9.55
2023-02-17T18:49:45.773Z,9.54
2023-02-17T18:52:31.722Z,9.47
2023-02-17T18:55:17.793Z,9.42
2023-02-17T18:58:04.929Z,9.31
2023-02-17T19:00:51.182Z,9.29
2023-02-17T19:03:37.261Z,9.22
2023-02-17T19:06:26.259Z,9.16
2023-02-17T19:09:12.441Z,9.08
2023-02-17T19:11:58.582Z,9.03
2023-02-17T19:14:45.021Z,8.96
2023-02-17T19:17:31.174Z,8.90
2023-02-17T19:20:17.244Z,8.87
2023-02-17T19:23:03.520Z,8.85
2023-02-17T19:25:49.399Z,8.81
2023-02-17T19:28:36.895Z,8.80
2023-02-17T19:31:23.411Z,8.76
2023-02-17T19:34:09.448Z,8.71
2023-02-17T19:36:55.818Z,8.75
2023-02-17T19:39:41.806Z,8.68
2023-02-17T19:42:28.509Z,8.68
2023-02-17T19:45:14.767Z,8.71
2023-02-17T19:48:01.153Z,8.64
2023-02-17T19:50:47.446Z,8.67
2023-02-17T19:53:33.526Z,8.59
2023-02-17T19:56:23.346Z,8.59
2023-02-17T19:59:09.482Z,8.57
2023-02-17T20:01:55.753Z,8.52
2023-02-17T20:04:42.207Z,8.49
2023-02-17T20:07:29.541Z,8.52
2023-02-17T20:10:15.420Z,8.45
2023-02-17T20:13:01.301Z,8.42
2023-02-17T20:15:46.997Z,8.37
2023-02-17T20:18:37.457Z,8.30
2023-02-17T20:21:26.345Z,8.27
2023-02-17T20:24:14.233Z,8.21
2023-02-17T20:27:00.100Z,8.19
2023-02-17T20:29:46.144Z,8.14
2023-02-17T20:32:31.955Z,8.06
2023-02-17T20:35:17.611Z,7.97
2023-02-17T20:38:05.393Z,7.96
2023-02-17T20:40:51.581Z,7.92
2023-02-17T20:43:38.378Z,7.87
2023-02-17T20:46:26.805Z,7.85
2023-02-17T20:49:13.876Z,7.78
2023-02-17T20:51:59.900Z,7.78
2023-02-17T20:54:46.344Z,7.76
2023-02-17T20:57:32.187Z,7.64
2023-02-17T21:00:20.768Z,7.63
2023-02-17T21:03:06.773Z,7.57
2023-02-17T21:05:53.004Z,7.47
2023-02-17T21:08:38.839Z,7.40
2023-02-17T21:11:25.225Z,7.27
2023-02-17T21:14:11.488Z,7.19
2023-02-17T21:16:57.771Z,7.14
2023-02-17T21:19:43.927Z,7.10
2023-02-17T21:22:29.643Z,7.10
2023-02-17T21:25:15.395Z,7.09
2023-02-17T21:28:01.016Z,7.01
2023-02-17T21:30:47.547Z,6.93
2023-02-17T21:33:34.239Z,6.89
2023-02-17T21:36:19.966Z,6.77
2023-02-17T21:39:06.180Z,6.75
2023-02-17T21:41:53.960Z,6.74
2023-02-17T21:44:52.354Z,6.68
2023-02-17T21:47:38.388Z,6.65
2023-02-17T21:50:24.196Z,6.65
2023-02-17T21:53:10.048Z,6.58
2023-02-17T21:55:59.071Z,6.56
2023-02-17T21:58:50.114Z,6.52
2023-02-17T22:01:37.538Z,6.52
2023-02-17T22:04:26.630Z,6.44
2023-02-17T22:07:15.700Z,6.47
2023-02-17T22:10:02.221Z,6.42
2023-02-17T22:12:48.273Z,6.36
2023-02-17T22:15:35.088Z,6.28
2023-02-17T22:18:21.268Z,6.26
2023-02-17T22:21:11.489Z,6.13
2023-02-17T22:24:01.557Z,6.06
2023-02-17T22:26:48.452Z,5.94
2023-02-17T22:29:35.445Z,5.83
2023-02-17T22:32:21.476Z,5.83
2023-02-17T22:35:08.208Z,5.78
2023-02-17T22:37:54.366Z,5.76
2023-02-17T22:40:41.476Z,5.70
2023-02-17T22:43:27.511Z,5.66
2023-02-17T22:46:18.744Z,5.54
2023-02-17T22:49:05.422Z,5.50
2023-02-17T22:51:52.647Z,5.45
2023-02-17T22:54:39.003Z,5.37
2023-02-17T22:57:25.242Z,5.27
2023-02-17T23:00:11.418Z,5.28
2023-02-17T23:02:57.322Z,5.24
2023-02-17T23:05:43.897Z,5.18
2023-02-17T23:08:30.006Z,5.17
2023-02-17T23:11:39.957Z,5.16
2023-02-17T23:14:29.731Z,5.17
2023-02-17T23:17:15.610Z,5.15
2023-02-17T23:20:02.520Z,5.15
2023-02-17T23:22:48.208Z,5.09
2023-02-17T23:25:35.589Z,5.00
2023-02-17T23:28:24.088Z,4.99
2023-02-17T23:31:10.739Z,4.98
2023-02-17T23:33:56.596Z,4.95
2023-02-17T23:36:43.772Z,4.97
2023-02-17T23:39:29.899Z,4.93
2023-02-17T23:42:17.097Z,4.98
2023-02-17T23:45:04.262Z,4.95
2023-02-17T23:47:50.369Z,4.99
2023-02-17T23:50:36.034Z,4.94
2023-02-17T23:53:22.013Z,4.94
2023-02-17T23:56:29.439Z,4.90
2023-02-17T23:59:15.373Z,4.88
